createdAt,value
2019-05-29T00:02:06.140Z,11.70
2019-05-29T00:04:33.934Z,11.70
2019-05-29T00:07:01.709Z,11.70
2019-05-29T00:09:29.500Z,11.60
2019-05-29T00:11:57.272Z,11.70
2019-05-29T00:14:27.462Z,11.70
2019-05-29T00:16:54.563Z,11.80
2019-05-29T00:19:22.372Z,11.70
2019-05-29T00:21:50.136Z,11.70
2019-05-29T00:24:17.931Z,11.60
2019-05-29T00:26:45.707Z,11.50
2019-05-29T00:29:13.857Z,11.50
2019-05-29T00:31:41.679Z,11.50
2019-05-29T00:34:09.471Z,11.40
2019-05-29T00:36:37.263Z,11.40
2019-05-29T00:39:06.568Z,11.50
2019-05-29T00:41:34.352Z,11.40
2019-05-29T00:44:02.199Z,11.40
2019-05-29T00:46:29.967Z,11.50
2019-05-29T00:48:57.763Z,11.50
2019-05-29T00:51:25.585Z,11.50
2019-05-29T00:53:53.395Z,11.50
2019-05-29T00:56:21.424Z,11.40
2019-05-29T00:58:49.225Z,11.40
2019-05-29T01:01:17.549Z,11.30
2019-05-29T01:03:45.395Z,11.10
2019-05-29T01:06:13.936Z,11.10
2019-05-29T01:08:41.844Z,11.10
2019-05-29T01:11:10.550Z,11.10
2019-05-29T01:13:38.491Z,11.10
2019-05-29T01:16:06.302Z,11.10
2019-05-29T01:18:34.076Z,11.20
2019-05-29T01:21:01.925Z,11.20
2019-05-29T01:23:29.698Z,11.10
2019-05-29T01:25:57.486Z,11.10
2019-05-29T01:28:25.332Z,11.10
2019-05-29T01:30:53.120Z,11.00
2019-05-29T01:33:23.406Z,11.00
2019-05-29T01:35:51.712Z,10.90
2019-05-29T01:38:19.757Z,10.80
2019-05-29T01:40:47.655Z,10.80
2019-05-29T01:43:15.462Z,10.80
2019-05-29T01:45:43.228Z,10.80
2019-05-29T01:48:11.020Z,10.70
2019-05-29T01:50:38.939Z,10.70
2019-05-29T01:53:06.723Z,10.60
2019-05-29T01:55:34.515Z,10.60
2019-05-29T01:58:02.302Z,10.50
2019-05-29T02:00:30.119Z,10.50
2019-05-29T02:02:57.903Z,10.40
2019-05-29T02:05:25.676Z,10.40
2019-05-29T02:07:53.529Z,10.30
2019-05-29T02:10:22.208Z,10.30
2019-05-29T02:12:50.088Z,10.20
2019-05-29T02:15:26.049Z,10.30
2019-05-29T02:17:47.759Z,10.20
2019-05-29T02:20:16.849Z,10.20
2019-05-29T02:22:45.028Z,10.20
2019-05-29T02:25:15.797Z,10.20
2019-05-29T02:27:42.316Z,10.10
2019-05-29T02:30:10.593Z,10.10
2019-05-29T02:32:38.712Z,10.00
2019-05-29T02:35:06.587Z,10.00
2019-05-29T02:37:34.373Z,10.00
2019-05-29T02:40:02.207Z,10.00
2019-05-29T02:42:30.016Z,10.00
2019-05-29T02:44:57.878Z,9.90
2019-05-29T02:47:26.114Z,9.90
2019-05-29T02:49:55.164Z,9.90
2019-05-29T02:52:24.288Z,9.90
2019-05-29T02:54:52.416Z,9.90
2019-05-29T02:57:20.766Z,9.80
2019-05-29T02:59:48.757Z,9.80
2019-05-29T03:02:16.541Z,9.70
2019-05-29T03:04:44.313Z,9.70
2019-05-29T03:07:12.257Z,9.70
2019-05-29T03:09:40.208Z,9.70
2019-05-29T03:12:08.304Z,9.60
2019-05-29T03:14:36.089Z,9.60
2019-05-29T03:17:03.868Z,9.60
2019-05-29T03:19:32.439Z,9.60
2019-05-29T03:22:00.862Z,9.60
2019-05-29T03:24:28.807Z,9.60
2019-05-29T03:26:58.203Z,9.60
2019-05-29T03:29:27.992Z,9.60
2019-05-29T03:31:55.968Z,9.50
2019-05-29T03:34:23.812Z,9.50
2019-05-29T03:36:51.580Z,9.50
2019-05-29T03:39:19.433Z,9.40
2019-05-29T03:41:47.219Z,9.40
2019-05-29T03:44:15.007Z,9.40
2019-05-29T03:46:45.924Z,9.40
2019-05-29T03:49:12.310Z,9.30
2019-05-29T03:51:40.091Z,9.30
2019-05-29T03:54:07.868Z,9.30
2019-05-29T03:56:35.646Z,9.40
2019-05-29T03:59:03.437Z,9.30
2019-05-29T04:01:31.815Z,9.30
2019-05-29T04:04:00.857Z,9.30
2019-05-29T04:06:29.063Z,9.40
2019-05-29T04:08:57.080Z,9.40
2019-05-29T04:11:24.832Z,9.40
2019-05-29T04:13:52.905Z,9.40
2019-05-29T04:16:22.366Z,9.40
2019-05-29T04:18:50.804Z,9.50
2019-05-29T04:21:19.896Z,9.50
2019-05-29T04:23:49.116Z,9.50
2019-05-29T04:26:17.593Z,9.50
2019-05-29T04:28:45.629Z,9.50
2019-05-29T04:31:13.488Z,9.50
2019-05-29T04:33:41.266Z,9.50
2019-05-29T04:36:09.048Z,9.50
2019-05-29T04:38:38.447Z,9.50
2019-05-29T04:41:06.333Z,9.60
2019-05-29T04:43:35.469Z,9.60
2019-05-29T04:46:03.701Z,9.60
2019-05-29T04:48:33.502Z,9.70
2019-05-29T04:51:01.273Z,9.70
2019-05-29T04:53:29.424Z,9.70
2019-05-29T04:55:57.913Z,9.70
2019-05-29T04:58:25.688Z,9.70
2019-05-29T05:00:59.096Z,9.80
2019-05-29T05:03:23.327Z,9.80
2019-05-29T05:05:51.131Z,9.80
2019-05-29T05:08:18.898Z,9.70
2019-05-29T05:10:46.679Z,9.70
2019-05-29T05:13:14.525Z,9.70
2019-05-29T05:15:43.855Z,9.70
2019-05-29T05:18:11.668Z,9.70
2019-05-29T05:20:40.422Z,9.80
2019-05-29T05:23:08.408Z,9.80
2019-05-29T05:25:36.448Z,9.90
2019-05-29T05:28:04.523Z,9.90
2019-05-29T05:30:34.296Z,10.00
2019-05-29T05:33:02.223Z,10.00
2019-05-29T05:35:30.735Z,10.10
2019-05-29T05:37:58.751Z,10.10
2019-05-29T05:40:26.620Z,10.10
2019-05-29T05:42:54.448Z,10.10
2019-05-29T05:45:22.224Z,10.20
2019-05-29T05:47:57.322Z,10.20
2019-05-29T05:50:19.849Z,10.30
2019-05-29T05:52:47.640Z,10.30
2019-05-29T05:55:15.895Z,10.40
2019-05-29T05:57:43.775Z,10.50
2019-05-29T06:00:12.152Z,10.50
2019-05-29T06:02:40.172Z,10.50
2019-05-29T06:05:08.194Z,10.60
2019-05-29T06:07:36.182Z,10.70
2019-05-29T06:10:04.755Z,10.80
2019-05-29T06:12:32.565Z,10.80
2019-05-29T06:15:00.335Z,10.80
2019-05-29T06:17:28.144Z,10.90
2019-05-29T06:19:55.919Z,11.00
2019-05-29T06:22:23.715Z,11.10
2019-05-29T06:24:51.568Z,11.20
2019-05-29T06:27:19.347Z,11.40
2019-05-29T06:29:47.145Z,11.40
2019-05-29T06:32:14.956Z,11.50
2019-05-29T06:34:43.811Z,11.60
2019-05-29T06:37:11.696Z,11.60
2019-05-29T06:39:39.679Z,11.60
2019-05-29T06:42:07.527Z,11.50
2019-05-29T06:44:36.664Z,11.60
2019-05-29T06:47:04.884Z,11.60
2019-05-29T06:49:33.830Z,11.70
2019-05-29T06:52:01.904Z,11.70
2019-05-29T06:54:29.697Z,11.80
2019-05-29T06:56:57.472Z,11.90
2019-05-29T06:59:25.260Z,11.90
2019-05-29T07:01:53.036Z,12.10
2019-05-29T07:04:20.840Z,12.10
2019-05-29T07:06:48.624Z,12.10
2019-05-29T07:09:16.408Z,12.10
2019-05-29T07:11:45.413Z,12.00
2019-05-29T07:14:13.363Z,12.30
2019-05-29T07:16:49.942Z,12.60
2019-05-29T07:19:45.098Z,12.70
2019-05-29T07:21:40.861Z,12.50
2019-05-29T07:24:08.831Z,12.60
2019-05-29T07:26:36.979Z,12.70
2019-05-29T07:29:08.245Z,12.80
2019-05-29T07:31:34.299Z,12.80
2019-05-29T07:34:02.641Z,12.80
2019-05-29T07:36:30.444Z,12.90
2019-05-29T07:39:03.563Z,12.90
2019-05-29T07:41:27.840Z,13.10
2019-05-29T07:43:55.628Z,13.10
2019-05-29T07:46:23.721Z,13.30
2019-05-29T07:48:51.628Z,13.30
2019-05-29T07:51:19.402Z,13.40
2019-05-29T07:53:47.184Z,13.50
2019-05-29T07:56:22.708Z,13.20
2019-05-29T07:58:57.061Z,13.20
2019-05-29T08:01:14.229Z,13.50
2019-05-29T08:03:43.475Z,13.70
2019-05-29T08:06:11.529Z,13.60
2019-05-29T08:08:39.396Z,13.50
2019-05-29T08:11:07.179Z,13.40
2019-05-29T08:13:34.960Z,13.10
2019-05-29T08:16:03.440Z,13.20
2019-05-29T08:18:31.725Z,13.40
2019-05-29T08:20:59.515Z,13.60
2019-05-29T08:23:27.314Z,13.80
2019-05-29T08:25:55.095Z,14.00
2019-05-29T08:28:22.884Z,14.20
2019-05-29T08:30:56.053Z,14.20
2019-05-29T08:33:20.169Z,14.20
2019-05-29T08:35:55.700Z,14.20
2019-05-29T08:38:17.738Z,14.40
2019-05-29T08:40:45.530Z,14.40
2019-05-29T08:43:13.369Z,14.50
2019-05-29T08:45:41.521Z,14.50
2019-05-29T08:48:09.412Z,14.60
2019-05-29T08:50:37.275Z,14.50
2019-05-29T08:53:05.072Z,14.50
2019-05-29T08:55:32.860Z,14.60
2019-05-29T08:58:00.636Z,14.70
2019-05-29T09:00:28.493Z,14.90
2019-05-29T09:02:56.269Z,14.90
2019-05-29T09:05:24.072Z,15.00
2019-05-29T09:07:54.099Z,15.00
2019-05-29T09:10:21.750Z,15.00
2019-05-29T09:12:58.614Z,15.20
2019-05-29T09:15:21.533Z,15.30
2019-05-29T09:17:48.711Z,15.30
2019-05-29T09:20:36.643Z,15.20
2019-05-29T09:22:46.194Z,15.30
2019-05-29T09:25:15.439Z,14.90
2019-05-29T09:27:43.420Z,14.60
2019-05-29T09:30:11.220Z,14.60
2019-05-29T09:32:49.971Z,14.80
2019-05-29T09:35:08.775Z,15.00
2019-05-29T09:37:36.567Z,15.10
2019-05-29T09:40:06.633Z,15.10
2019-05-29T09:42:34.422Z,14.80
2019-05-29T09:45:02.207Z,14.70
2019-05-29T09:47:30.093Z,14.80
2019-05-29T09:49:57.884Z,15.00
2019-05-29T09:52:25.678Z,15.10
2019-05-29T09:54:54.630Z,15.40
2019-05-29T09:57:22.644Z,15.40
2019-05-29T09:59:50.501Z,15.40
2019-05-29T10:02:18.333Z,15.60
2019-05-29T10:04:46.456Z,15.60
2019-05-29T10:07:14.244Z,15.60
2019-05-29T10:09:42.016Z,15.70
2019-05-29T10:12:09.823Z,15.70
2019-05-29T10:14:37.932Z,15.90
2019-05-29T10:17:11.882Z,16.00
2019-05-29T10:19:35.299Z,16.30
2019-05-29T10:22:04.065Z,16.30
2019-05-29T10:24:32.748Z,16.10
2019-05-29T10:27:01.621Z,16.10
2019-05-29T10:29:30.060Z,16.10
2019-05-29T10:31:57.823Z,16.00
2019-05-29T10:34:25.600Z,16.10
2019-05-29T10:36:54.762Z,16.20
2019-05-29T10:39:22.824Z,16.20
2019-05-29T10:41:50.977Z,16.20
2019-05-29T10:44:18.793Z,16.20
2019-05-29T10:46:48.360Z,16.20
2019-05-29T10:49:16.108Z,16.10
2019-05-29T10:52:00.289Z,16.10
2019-05-29T10:54:13.653Z,16.30
2019-05-29T10:56:41.578Z,16.40
2019-05-29T10:59:09.368Z,16.60
2019-05-29T11:01:37.400Z,16.90
2019-05-29T11:04:05.195Z,16.80
2019-05-29T11:06:32.982Z,17.00
2019-05-29T11:09:00.820Z,17.00
2019-05-29T11:11:28.605Z,17.00
2019-05-29T11:13:57.173Z,17.20
2019-05-29T11:16:25.043Z,17.50
2019-05-29T11:18:53.377Z,17.70
2019-05-29T11:21:21.407Z,17.80
2019-05-29T11:23:49.878Z,16.90
2019-05-29T11:26:17.853Z,16.90
2019-05-29T11:28:45.728Z,16.80
2019-05-29T11:31:13.507Z,16.70
2019-05-29T11:33:41.306Z,16.70
2019-05-29T11:36:12.845Z,16.80
2019-05-29T11:38:38.590Z,16.70
2019-05-29T11:41:25.187Z,16.80
2019-05-29T11:43:36.073Z,17.00
2019-05-29T11:46:03.990Z,17.10
2019-05-29T11:48:31.809Z,17.20
2019-05-29T11:50:59.560Z,17.30
2019-05-29T11:53:27.364Z,17.40
2019-05-29T11:55:55.842Z,17.70
2019-05-29T11:58:30.941Z,17.80
2019-05-29T12:00:53.353Z,17.70
2019-05-29T12:03:21.133Z,17.90
2019-05-29T12:05:48.929Z,18.00
2019-05-29T12:08:16.715Z,18.00
2019-05-29T12:10:44.484Z,18.00
2019-05-29T12:13:12.265Z,18.20
2019-05-29T12:15:40.138Z,18.80
2019-05-29T12:18:22.937Z,19.20
2019-05-29T12:20:37.542Z,19.40
2019-05-29T12:23:24.125Z,19.20
2019-05-29T12:25:34.873Z,19.60
2019-05-29T12:28:03.479Z,20.30
2019-05-29T12:30:31.728Z,20.20
2019-05-29T12:32:59.500Z,19.80
2019-05-29T12:35:27.308Z,19.50
2019-05-29T12:37:55.216Z,19.40
2019-05-29T12:40:23.073Z,19.40
2019-05-29T12:43:25.903Z,19.10
2019-05-29T12:45:39.633Z,18.80
2019-05-29T12:48:13.230Z,18.60
2019-05-29T12:50:58.078Z,18.60
2019-05-29T12:53:30.154Z,18.20
2019-05-29T12:55:56.176Z,19.20
2019-05-29T12:58:24.380Z,20.40
2019-05-29T13:00:52.178Z,21.00
2019-05-29T13:03:19.952Z,21.30
2019-05-29T13:05:47.769Z,21.10
2019-05-29T13:08:15.613Z,20.70
2019-05-29T13:10:43.500Z,20.50
2019-05-29T13:13:11.609Z,20.20
2019-05-29T13:15:39.696Z,20.50
2019-05-29T13:18:09.982Z,20.80
2019-05-29T13:20:37.220Z,21.40
2019-05-29T13:23:07.236Z,22.20
2019-05-29T13:25:34.676Z,23.50
2019-05-29T13:28:03.065Z,23.90
2019-05-29T13:30:32.160Z,23.30
2019-05-29T13:33:03.154Z,22.90
2019-05-29T13:35:29.477Z,22.30
2019-05-29T13:37:58.878Z,22.20
2019-05-29T13:40:27.220Z,21.40
2019-05-29T13:42:56.143Z,21.00
2019-05-29T13:45:24.088Z,20.90
2019-05-29T13:47:52.529Z,20.90
2019-05-29T13:50:20.386Z,20.90
2019-05-29T13:52:48.203Z,20.60
2019-05-29T13:55:16.767Z,20.30
2019-05-29T13:57:44.589Z,19.80
2019-05-29T14:00:32.124Z,19.90
2019-05-29T14:02:44.491Z,20.60
2019-05-29T14:05:12.658Z,20.70
2019-05-29T14:07:40.791Z,20.50
2019-05-29T14:10:09.710Z,20.60
2019-05-29T14:12:38.042Z,20.50
2019-05-29T14:15:06.575Z,19.70
2019-05-29T14:17:34.901Z,19.30
2019-05-29T14:20:02.867Z,19.20
2019-05-29T14:22:30.676Z,19.30
2019-05-29T14:24:58.475Z,19.50
2019-05-29T14:27:26.332Z,19.90
2019-05-29T14:29:54.160Z,20.30
2019-05-29T14:32:21.978Z,21.20
2019-05-29T14:34:49.781Z,22.00
2019-05-29T14:37:17.646Z,23.20
2019-05-29T14:39:45.582Z,24.60
2019-05-29T14:42:13.392Z,26.10
2019-05-29T14:44:41.259Z,26.60
2019-05-29T14:47:10.197Z,27.10
2019-05-29T14:49:38.409Z,26.80
2019-05-29T14:52:06.966Z,25.00
2019-05-29T14:54:41.603Z,24.90
2019-05-29T14:57:19.554Z,25.40
2019-05-29T14:59:33.944Z,25.10
2019-05-29T15:02:06.025Z,25.40
2019-05-29T15:04:31.387Z,25.50
2019-05-29T15:06:59.632Z,25.00
2019-05-29T15:09:27.424Z,24.50
2019-05-29T15:11:55.225Z,24.80
2019-05-29T15:14:23.049Z,25.10
2019-05-29T15:16:50.875Z,25.30
2019-05-29T15:19:18.688Z,25.20
2019-05-29T15:21:46.469Z,25.10
2019-05-29T15:24:15.835Z,24.70
2019-05-29T15:26:43.856Z,24.40
2019-05-29T15:29:14.293Z,23.70
2019-05-29T15:31:41.326Z,22.90
2019-05-29T15:34:10.204Z,22.10
2019-05-29T15:36:38.201Z,21.90
2019-05-29T15:39:06.720Z,22.20
2019-05-29T15:41:34.648Z,22.00
2019-05-29T15:44:02.450Z,22.20
2019-05-29T15:46:30.266Z,22.40
2019-05-29T15:48:58.057Z,21.90
2019-05-29T15:51:25.863Z,22.20
2019-05-29T15:53:53.946Z,21.00
2019-05-29T15:56:27.883Z,21.00
2019-05-29T15:58:51.349Z,21.20
2019-05-29T16:01:19.170Z,21.10
2019-05-29T16:03:46.956Z,21.30
2019-05-29T16:06:16.008Z,21.30
2019-05-29T16:08:44.002Z,21.20
2019-05-29T16:11:12.605Z,21.00
2019-05-29T16:13:40.646Z,21.10
2019-05-29T16:16:09.425Z,20.70
2019-05-29T16:18:37.333Z,20.90
2019-05-29T16:21:05.249Z,21.00
2019-05-29T16:23:35.969Z,21.10
2019-05-29T16:26:02.548Z,21.30
2019-05-29T16:28:30.359Z,21.10
2019-05-29T16:30:58.440Z,20.90
2019-05-29T16:33:26.248Z,20.60
2019-05-29T16:35:54.056Z,20.50
2019-05-29T16:38:21.970Z,20.10
2019-05-29T16:40:49.824Z,19.70
2019-05-29T16:43:18.124Z,19.60
2019-05-29T16:45:46.067Z,19.80
2019-05-29T16:48:14.555Z,19.80
2019-05-29T16:50:42.522Z,20.00
2019-05-29T16:53:10.292Z,20.00
2019-05-29T16:55:52.773Z,19.90
2019-05-29T16:58:07.759Z,20.00
2019-05-29T17:00:38.561Z,20.00
2019-05-29T17:03:06.423Z,20.10
2019-05-29T17:05:34.326Z,20.00
2019-05-29T17:08:02.508Z,19.90
2019-05-29T17:10:34.948Z,20.10
2019-05-29T17:13:02.856Z,20.20
2019-05-29T17:15:30.731Z,19.90
2019-05-29T17:17:58.513Z,20.10
2019-05-29T17:20:37.857Z,20.30
2019-05-29T17:23:05.817Z,20.40
2019-05-29T17:25:33.595Z,20.60
2019-05-29T17:28:01.384Z,20.70
2019-05-29T17:30:30.675Z,20.70
2019-05-29T17:32:58.476Z,20.40
2019-05-29T17:35:26.300Z,20.40
2019-05-29T17:37:54.097Z,20.40
2019-05-29T17:40:21.910Z,20.50
2019-05-29T17:42:49.700Z,20.50
2019-05-29T17:45:21.355Z,20.70
2019-05-29T17:47:47.271Z,20.80
2019-05-29T17:50:19.130Z,20.90
2019-05-29T17:52:44.895Z,20.40
2019-05-29T17:55:13.886Z,20.50
2019-05-29T17:57:41.824Z,20.20
2019-05-29T18:00:10.382Z,19.70
2019-05-29T18:02:51.282Z,19.40
2019-05-29T18:05:07.903Z,19.20
2019-05-29T18:07:35.763Z,19.30
2019-05-29T18:10:03.972Z,19.50
2019-05-29T18:12:31.747Z,19.70
2019-05-29T18:14:59.548Z,19.80
2019-05-29T18:17:27.754Z,19.90
2019-05-29T18:19:55.707Z,19.50
2019-05-29T18:22:23.739Z,19.40
2019-05-29T18:24:51.694Z,19.20
2019-05-29T18:27:19.879Z,19.30
2019-05-29T18:29:47.801Z,19.30
2019-05-29T18:32:15.912Z,19.20
2019-05-29T18:34:43.789Z,19.30
2019-05-29T18:37:11.652Z,19.40
2019-05-29T18:39:39.487Z,19.40
2019-05-29T18:42:07.300Z,19.50
2019-05-29T18:44:35.092Z,19.60
2019-05-29T18:47:02.902Z,19.40
2019-05-29T18:49:30.724Z,19.20
2019-05-29T18:52:00.445Z,19.10
2019-05-29T18:54:28.073Z,18.90
2019-05-29T18:57:13.620Z,18.90
2019-05-29T18:59:25.646Z,18.70
2019-05-29T19:01:53.545Z,18.50
2019-05-29T19:04:21.482Z,18.50
2019-05-29T19:06:49.927Z,18.40
2019-05-29T19:09:17.837Z,18.30
2019-05-29T19:11:45.705Z,18.20
2019-05-29T19:14:13.489Z,18.20
2019-05-29T19:16:41.271Z,18.10
2019-05-29T19:19:09.113Z,17.90
2019-05-29T19:21:37.029Z,17.90
2019-05-29T19:24:04.908Z,17.80
2019-05-29T19:26:36.612Z,17.70
2019-05-29T19:29:02.753Z,17.70
2019-05-29T19:31:31.286Z,17.70
2019-05-29T19:33:59.355Z,17.70
2019-05-29T19:36:27.691Z,17.70
2019-05-29T19:38:55.733Z,17.50
2019-05-29T19:41:23.951Z,17.40
2019-05-29T19:43:52.001Z,17.10
2019-05-29T19:46:19.800Z,16.70
2019-05-29T19:48:47.595Z,16.50
2019-05-29T19:51:15.368Z,16.30
2019-05-29T19:53:43.151Z,16.30
2019-05-29T19:56:10.931Z,16.10
2019-05-29T19:58:38.795Z,16.10
2019-05-29T20:01:06.600Z,15.90
2019-05-29T20:03:34.717Z,15.90
2019-05-29T20:06:02.580Z,15.80
2019-05-29T20:08:33.248Z,15.70
2019-05-29T20:11:00.163Z,15.60
2019-05-29T20:13:28.108Z,15.50
2019-05-29T20:15:55.875Z,15.60
2019-05-29T20:18:23.663Z,15.50
2019-05-29T20:20:51.915Z,15.50
2019-05-29T20:23:19.802Z,15.50
2019-05-29T20:25:47.625Z,15.50
2019-05-29T20:28:15.416Z,15.50
2019-05-29T20:30:43.175Z,15.40
2019-05-29T20:33:10.974Z,15.40
2019-05-29T20:35:39.185Z,15.40
2019-05-29T20:38:07.250Z,15.30
2019-05-29T20:40:35.192Z,15.30
2019-05-29T20:43:03.252Z,15.20
2019-05-29T20:45:31.420Z,15.20
2019-05-29T20:47:59.823Z,15.20
2019-05-29T20:50:27.690Z,15.10
2019-05-29T20:52:55.460Z,15.20
2019-05-29T20:55:23.287Z,15.20
2019-05-29T20:57:51.258Z,15.10
2019-05-29T21:00:19.206Z,15.00
2019-05-29T21:02:47.291Z,14.90
2019-05-29T21:05:15.244Z,14.90
2019-05-29T21:07:43.267Z,14.90
2019-05-29T21:10:12.012Z,14.90
2019-05-29T21:12:44.333Z,14.90
2019-05-29T21:15:09.467Z,14.80
2019-05-29T21:17:37.874Z,14.80
2019-05-29T21:20:06.188Z,14.80
2019-05-29T21:22:34.474Z,14.80
2019-05-29T21:25:07.856Z,14.80
2019-05-29T21:27:32.189Z,14.70
2019-05-29T21:30:00.000Z,14.80
2019-05-29T21:32:28.040Z,14.80
2019-05-29T21:34:55.837Z,14.70
2019-05-29T21:37:23.608Z,14.70
2019-05-29T21:39:51.401Z,14.60
2019-05-29T21:42:19.502Z,14.50
2019-05-29T21:44:47.287Z,14.40
2019-05-29T21:47:15.072Z,14.30
2019-05-29T21:49:43.281Z,14.20
2019-05-29T21:52:11.349Z,14.20
2019-05-29T21:54:39.380Z,14.10
2019-05-29T21:57:07.269Z,14.00
2019-05-29T21:59:35.307Z,13.90
2019-05-29T22:02:03.120Z,13.90
2019-05-29T22:04:30.963Z,13.80
2019-05-29T22:06:58.812Z,13.70
2019-05-29T22:09:26.604Z,13.70
2019-05-29T22:11:54.395Z,13.60
2019-05-29T22:14:22.188Z,13.60
2019-05-29T22:16:50.851Z,13.40
2019-05-29T22:19:18.736Z,13.40
2019-05-29T22:21:46.519Z,13.40
2019-05-29T22:24:14.472Z,13.50
2019-05-29T22:26:42.545Z,13.50
2019-05-29T22:29:17.834Z,13.50
2019-05-29T22:31:39.857Z,13.50
2019-05-29T22:34:07.747Z,13.50
2019-05-29T22:36:35.572Z,13.40
2019-05-29T22:39:04.548Z,13.30
2019-05-29T22:41:32.356Z,13.40
2019-05-29T22:44:00.142Z,13.30
2019-05-29T22:46:27.965Z,13.20
2019-05-29T22:48:55.898Z,13.10
2019-05-29T22:51:23.824Z,13.00
2019-05-29T22:53:52.436Z,12.90
2019-05-29T22:56:21.246Z,12.90
2019-05-29T22:58:49.009Z,12.80
2019-05-29T23:01:16.814Z,12.80
2019-05-29T23:03:44.878Z,12.80
2019-05-29T23:06:12.703Z,12.80
2019-05-29T23:08:40.475Z,12.80
2019-05-29T23:11:08.268Z,12.80
2019-05-29T23:13:36.120Z,12.70
2019-05-29T23:16:04.050Z,12.70
2019-05-29T23:18:31.820Z,12.80
2019-05-29T23:21:00.616Z,12.70
2019-05-29T23:23:28.531Z,12.60
2019-05-29T23:25:58.430Z,12.50
2019-05-29T23:28:26.448Z,12.50
2019-05-29T23:30:54.690Z,12.50
2019-05-29T23:33:22.496Z,12.50
2019-05-29T23:35:50.525Z,12.50
2019-05-29T23:38:18.608Z,12.50
2019-05-29T23:40:46.550Z,12.40
2019-05-29T23:43:14.323Z,12.40
2019-05-29T23:45:42.112Z,12.40
2019-05-29T23:48:09.915Z,12.50
2019-05-29T23:50:37.695Z,12.40
2019-05-29T23:53:05.525Z,12.50
2019-05-29T23:55:33.341Z,12.50
2019-05-29T23:58:02.075Z,12.50
